createdAt,value
2019-05-22T00:00:39.710Z,1008.61
2019-05-22T00:01:39.700Z,1008.62
2019-05-22T00:02:39.694Z,1008.65
2019-05-22T00:03:39.684Z,1008.66
2019-05-22T00:04:39.680Z,1008.63
2019-05-22T00:05:39.680Z,1008.66
2019-05-22T00:06:39.695Z,1008.66
2019-05-22T00:07:39.660Z,1008.71
2019-05-22T00:08:39.704Z,1008.68
2019-05-22T00:09:39.644Z,1008.68
2019-05-22T00:10:39.637Z,1008.71
2019-05-22T00:11:39.637Z,1008.74
2019-05-22T00:12:46.852Z,1008.76
2019-05-22T00:13:39.620Z,1008.81
2019-05-22T00:14:39.614Z,1008.77
2019-05-22T00:15:39.599Z,1008.79
2019-05-22T00:16:39.600Z,1008.79
2019-05-22T00:17:39.593Z,1008.82
2019-05-22T00:18:39.583Z,1008.85
2019-05-22T00:19:39.576Z,1008.81
2019-05-22T00:20:39.567Z,1008.85
2019-05-22T00:21:39.571Z,1008.83
2019-05-22T00:22:39.552Z,1008.84
2019-05-22T00:23:39.556Z,1008.85
2019-05-22T00:24:39.540Z,1008.83
2019-05-22T00:25:39.531Z,1008.83
2019-05-22T00:26:39.524Z,1008.84
2019-05-22T00:27:39.519Z,1008.85
2019-05-22T00:28:39.513Z,1008.84
2019-05-22T00:29:39.502Z,1008.86
2019-05-22T00:30:39.499Z,1008.85
2019-05-22T00:31:39.491Z,1008.90
2019-05-22T00:32:39.490Z,1008.89
2019-05-22T00:33:39.476Z,1008.79
2019-05-22T00:34:39.470Z,1008.86
2019-05-22T00:35:39.457Z,1008.85
2019-05-22T00:36:39.457Z,1008.83
2019-05-22T00:37:39.449Z,1008.82
2019-05-22T00:38:39.444Z,1008.83
2019-05-22T00:39:39.433Z,1008.84
2019-05-22T00:40:39.429Z,1008.85
2019-05-22T00:41:39.421Z,1008.86
2019-05-22T00:42:39.411Z,1008.86
2019-05-22T00:43:39.404Z,1008.88
2019-05-22T00:44:39.401Z,1008.89
2019-05-22T00:45:39.394Z,1008.93
2019-05-22T00:46:39.385Z,1008.91
2019-05-22T00:47:39.375Z,1008.94
2019-05-22T00:48:39.371Z,1008.85
2019-05-22T00:49:39.366Z,1008.95
2019-05-22T00:50:39.358Z,1008.92
2019-05-22T00:51:39.347Z,1008.91
2019-05-22T00:52:39.345Z,1008.88
2019-05-22T00:53:39.337Z,1008.90
2019-05-22T00:54:39.329Z,1008.93
2019-05-22T00:55:39.322Z,1008.86
2019-05-22T00:56:39.312Z,1008.89
2019-05-22T00:57:39.304Z,1008.85
2019-05-22T00:58:39.302Z,1008.93
2019-05-22T00:59:39.291Z,1008.90
2019-05-22T01:00:39.359Z,1008.88
2019-05-22T01:01:39.337Z,1008.91
2019-05-22T01:02:39.265Z,1008.97
2019-05-22T01:03:39.265Z,1008.99
2019-05-22T01:04:39.256Z,1008.98
2019-05-22T01:05:39.249Z,1008.99
2019-05-22T01:06:39.239Z,1009.04
2019-05-22T01:07:39.235Z,1009.07
2019-05-22T01:08:39.223Z,1009.05
2019-05-22T01:09:39.222Z,1009.09
2019-05-22T01:10:39.214Z,1009.10
2019-05-22T01:11:39.206Z,1009.15
2019-05-22T01:12:39.202Z,1009.17
2019-05-22T01:13:39.194Z,1009.18
2019-05-22T01:14:42.867Z,1009.16
2019-05-22T01:15:39.181Z,1009.21
2019-05-22T01:16:39.172Z,1009.19
2019-05-22T01:17:39.169Z,1009.18
2019-05-22T01:18:39.158Z,1009.18
2019-05-22T01:19:39.149Z,1009.15
2019-05-22T01:20:39.141Z,1009.16
2019-05-22T01:21:39.139Z,1009.17
2019-05-22T01:22:39.128Z,1009.15
2019-05-22T01:23:39.118Z,1009.15
2019-05-22T01:24:39.115Z,1009.21
2019-05-22T01:25:39.108Z,1009.20
2019-05-22T01:26:39.100Z,1009.21
2019-05-22T01:27:39.092Z,1009.19
2019-05-22T01:28:39.093Z,1009.21
2019-05-22T01:29:39.076Z,1009.18
2019-05-22T01:30:39.072Z,1009.17
2019-05-22T01:31:39.064Z,1009.17
2019-05-22T01:32:39.055Z,1009.17
2019-05-22T01:33:39.046Z,1009.16
2019-05-22T01:34:39.040Z,1009.20
2019-05-22T01:35:39.035Z,1009.19
2019-05-22T01:36:39.029Z,1009.15
2019-05-22T01:37:39.025Z,1009.14
2019-05-22T01:38:39.011Z,1009.17
2019-05-22T01:39:39.006Z,1009.15
2019-05-22T01:40:38.997Z,1009.12
2019-05-22T01:41:38.994Z,1009.13
2019-05-22T01:42:39.020Z,1009.08
2019-05-22T01:43:38.974Z,1009.07
2019-05-22T01:44:38.969Z,1009.08
2019-05-22T01:45:38.963Z,1009.04
2019-05-22T01:46:38.955Z,1009.11
2019-05-22T01:47:38.947Z,1009.11
2019-05-22T01:48:38.941Z,1009.11
2019-05-22T01:49:38.931Z,1009.13
2019-05-22T01:50:38.932Z,1009.14
2019-05-22T01:51:38.922Z,1009.12
2019-05-22T01:52:38.911Z,1009.07
2019-05-22T01:53:38.913Z,1009.13
2019-05-22T01:54:38.893Z,1009.12
2019-05-22T01:55:38.892Z,1009.11
2019-05-22T01:56:38.885Z,1009.14
2019-05-22T01:57:38.875Z,1009.12
2019-05-22T01:58:38.866Z,1009.16
2019-05-22T01:59:38.862Z,1009.14
2019-05-22T02:00:38.859Z,1009.17
2019-05-22T02:01:38.843Z,1009.18
2019-05-22T02:02:38.837Z,1009.16
2019-05-22T02:03:38.843Z,1009.19
2019-05-22T02:04:38.827Z,1009.21
2019-05-22T02:05:38.818Z,1009.19
2019-05-22T02:06:38.812Z,1009.22
2019-05-22T02:07:38.806Z,1009.22
2019-05-22T02:08:38.794Z,1009.22
2019-05-22T02:09:38.791Z,1009.19
2019-05-22T02:10:38.780Z,1009.21
2019-05-22T02:11:38.775Z,1009.23
2019-05-22T02:12:38.772Z,1009.25
2019-05-22T02:13:38.810Z,1009.26
2019-05-22T02:14:38.772Z,1009.23
2019-05-22T02:15:38.742Z,1009.31
2019-05-22T02:16:53.863Z,1009.31
2019-05-22T02:17:38.732Z,1009.32
2019-05-22T02:18:38.722Z,1009.35
2019-05-22T02:19:38.809Z,1009.33
2019-05-22T02:20:38.703Z,1009.35
2019-05-22T02:21:38.702Z,1009.38
2019-05-22T02:22:38.701Z,1009.37
2019-05-22T02:23:38.686Z,1009.38
2019-05-22T02:24:38.677Z,1009.38
2019-05-22T02:25:38.671Z,1009.40
2019-05-22T02:26:38.667Z,1009.35
2019-05-22T02:27:38.658Z,1009.38
2019-05-22T02:28:38.649Z,1009.36
2019-05-22T02:29:38.639Z,1009.36
2019-05-22T02:30:38.638Z,1009.35
2019-05-22T02:31:38.634Z,1009.32
2019-05-22T02:32:38.619Z,1009.30
2019-05-22T02:33:38.610Z,1009.33
2019-05-22T02:34:38.602Z,1009.38
2019-05-22T02:35:38.600Z,1009.39
2019-05-22T02:36:38.589Z,1009.40
2019-05-22T02:37:38.591Z,1009.39
2019-05-22T02:38:38.576Z,1009.43
2019-05-22T02:39:38.569Z,1009.43
2019-05-22T02:40:38.561Z,1009.46
2019-05-22T02:41:38.561Z,1009.51
2019-05-22T02:42:38.546Z,1009.49
2019-05-22T02:43:38.540Z,1009.52
2019-05-22T02:44:38.532Z,1009.53
2019-05-22T02:45:38.529Z,1009.53
2019-05-22T02:46:38.516Z,1009.55
2019-05-22T02:47:38.514Z,1009.55
2019-05-22T02:48:42.098Z,1009.54
2019-05-22T02:49:38.496Z,1009.54
2019-05-22T02:50:38.489Z,1009.50
2019-05-22T02:51:38.483Z,1009.52
2019-05-22T02:52:38.559Z,1009.49
2019-05-22T02:53:38.464Z,1009.44
2019-05-22T02:54:38.458Z,1009.47
2019-05-22T02:55:38.452Z,1009.51
2019-05-22T02:56:38.448Z,1009.50
2019-05-22T02:57:38.441Z,1009.51
2019-05-22T02:58:38.432Z,1009.53
2019-05-22T02:59:38.426Z,1009.53
2019-05-22T03:00:38.413Z,1009.55
2019-05-22T03:01:38.407Z,1009.55
2019-05-22T03:02:38.400Z,1009.57
2019-05-22T03:03:38.389Z,1009.57
2019-05-22T03:04:38.387Z,1009.58
2019-05-22T03:05:38.378Z,1009.61
2019-05-22T03:06:38.371Z,1009.63
2019-05-22T03:07:38.359Z,1009.63
2019-05-22T03:08:38.348Z,1009.66
2019-05-22T03:09:38.352Z,1009.71
2019-05-22T03:10:38.358Z,1009.64
2019-05-22T03:11:38.335Z,1009.67
2019-05-22T03:12:38.324Z,1009.68
2019-05-22T03:13:38.324Z,1009.65
2019-05-22T03:14:38.309Z,1009.70
2019-05-22T03:15:38.306Z,1009.68
2019-05-22T03:16:38.298Z,1009.68
2019-05-22T03:17:38.289Z,1009.63
2019-05-22T03:18:38.281Z,1009.70
2019-05-22T03:19:38.277Z,1009.71
2019-05-22T03:20:38.269Z,1009.72
2019-05-22T03:21:38.260Z,1009.67
2019-05-22T03:22:38.251Z,1009.76
2019-05-22T03:23:38.243Z,1009.75
2019-05-22T03:24:38.241Z,1009.74
2019-05-22T03:25:38.226Z,1009.73
2019-05-22T03:26:38.221Z,1009.71
2019-05-22T03:27:38.216Z,1009.77
2019-05-22T03:28:38.207Z,1009.72
2019-05-22T03:29:38.201Z,1009.71
2019-05-22T03:30:38.217Z,1009.73
2019-05-22T03:31:38.186Z,1009.71
2019-05-22T03:32:43.367Z,1009.76
2019-05-22T03:33:38.175Z,1009.76
2019-05-22T03:34:38.210Z,1009.76
2019-05-22T03:35:38.151Z,1009.82
2019-05-22T03:36:38.148Z,1009.81
2019-05-22T03:37:38.142Z,1009.80
2019-05-22T03:38:38.141Z,1009.80
2019-05-22T03:39:38.129Z,1009.82
2019-05-22T03:40:38.117Z,1009.79
2019-05-22T03:41:38.113Z,1009.78
2019-05-22T03:42:38.101Z,1009.78
2019-05-22T03:43:38.098Z,1009.81
2019-05-22T03:44:38.092Z,1009.84
2019-05-22T03:45:38.082Z,1009.77
2019-05-22T03:46:38.074Z,1009.84
2019-05-22T03:47:38.063Z,1009.82
2019-05-22T03:48:38.062Z,1009.80
2019-05-22T03:49:38.049Z,1009.92
2019-05-22T03:50:38.039Z,1009.82
2019-05-22T03:51:38.035Z,1009.79
2019-05-22T03:52:38.032Z,1009.84
2019-05-22T03:53:38.024Z,1009.83
2019-05-22T03:54:38.018Z,1009.83
2019-05-22T03:55:38.005Z,1009.80
2019-05-22T03:56:38.002Z,1009.87
2019-05-22T03:57:37.992Z,1009.79
2019-05-22T03:58:37.992Z,1009.89
2019-05-22T03:59:37.975Z,1009.91
2019-05-22T04:00:42.982Z,1009.93
2019-05-22T04:01:37.971Z,1009.91
2019-05-22T04:02:37.958Z,1009.95
2019-05-22T04:03:37.951Z,1009.96
2019-05-22T04:04:37.935Z,1009.94
2019-05-22T04:05:37.930Z,1009.95
2019-05-22T04:06:37.928Z,1009.97
2019-05-22T04:07:37.915Z,1010.00
2019-05-22T04:08:37.910Z,1009.97
2019-05-22T04:09:37.899Z,1009.99
2019-05-22T04:10:41.046Z,1009.97
2019-05-22T04:11:37.884Z,1010.01
2019-05-22T04:12:37.873Z,1010.07
2019-05-22T04:13:37.870Z,1010.04
2019-05-22T04:14:37.864Z,1010.04
2019-05-22T04:15:37.853Z,1010.05
2019-05-22T04:16:37.846Z,1010.09
2019-05-22T04:17:37.841Z,1010.12
2019-05-22T04:18:37.831Z,1010.12
2019-05-22T04:19:49.355Z,1010.17
2019-05-22T04:20:37.818Z,1010.20
2019-05-22T04:21:37.812Z,1010.22
2019-05-22T04:22:37.803Z,1010.20
2019-05-22T04:23:37.824Z,1010.18
2019-05-22T04:24:37.793Z,1010.21
2019-05-22T04:25:37.781Z,1010.21
2019-05-22T04:26:37.774Z,1010.21
2019-05-22T04:27:37.763Z,1010.20
2019-05-22T04:28:37.758Z,1010.22
2019-05-22T04:29:37.757Z,1010.19
2019-05-22T04:30:37.741Z,1010.24
2019-05-22T04:31:37.734Z,1010.27
2019-05-22T04:32:37.729Z,1010.21
2019-05-22T04:33:37.718Z,1010.20
2019-05-22T04:34:37.717Z,1010.27
2019-05-22T04:35:37.706Z,1010.26
2019-05-22T04:36:37.725Z,1010.24
2019-05-22T04:37:37.691Z,1010.27
2019-05-22T04:38:37.681Z,1010.26
2019-05-22T04:39:37.678Z,1010.30
2019-05-22T04:40:37.667Z,1010.28
2019-05-22T04:41:37.663Z,1010.32
2019-05-22T04:42:37.655Z,1010.31
2019-05-22T04:43:37.643Z,1010.32
2019-05-22T04:44:37.640Z,1010.30
2019-05-22T04:45:37.631Z,1010.32
2019-05-22T04:46:37.624Z,1010.30
2019-05-22T04:47:37.615Z,1010.31
2019-05-22T04:48:37.612Z,1010.31
2019-05-22T04:49:37.601Z,1010.32
2019-05-22T04:50:37.598Z,1010.33
2019-05-22T04:51:37.585Z,1010.32
2019-05-22T04:52:37.577Z,1010.34
2019-05-22T04:53:37.572Z,1010.34
2019-05-22T04:54:37.562Z,1010.37
2019-05-22T04:55:37.558Z,1010.34
2019-05-22T04:56:37.549Z,1010.38
2019-05-22T04:57:37.541Z,1010.39
2019-05-22T04:58:37.534Z,1010.41
2019-05-22T04:59:37.531Z,1010.41
2019-05-22T05:00:37.524Z,1010.40
2019-05-22T05:01:37.515Z,1010.40
2019-05-22T05:02:37.518Z,1010.41
2019-05-22T05:03:37.497Z,1010.37
2019-05-22T05:04:37.493Z,1010.37
2019-05-22T05:05:37.482Z,1010.36
2019-05-22T05:06:37.472Z,1010.42
2019-05-22T05:07:37.460Z,1010.44
2019-05-22T05:08:37.456Z,1010.45
2019-05-22T05:09:37.458Z,1010.45
2019-05-22T05:10:37.446Z,1010.47
2019-05-22T05:11:37.436Z,1010.54
2019-05-22T05:12:38.242Z,1010.56
2019-05-22T05:13:37.424Z,1010.55
2019-05-22T05:14:37.413Z,1010.59
2019-05-22T05:15:37.465Z,1010.63
2019-05-22T05:16:37.396Z,1010.62
2019-05-22T05:17:37.388Z,1010.63
2019-05-22T05:18:37.389Z,1010.60
2019-05-22T05:19:37.375Z,1010.61
2019-05-22T05:20:37.366Z,1010.64
2019-05-22T05:21:37.365Z,1010.61
2019-05-22T05:22:37.355Z,1010.61
2019-05-22T05:23:37.344Z,1010.60
2019-05-22T05:24:37.342Z,1010.64
2019-05-22T05:25:37.331Z,1010.63
2019-05-22T05:26:37.323Z,1010.60
2019-05-22T05:27:37.318Z,1010.58
2019-05-22T05:28:37.310Z,1010.63
2019-05-22T05:29:37.302Z,1010.62
2019-05-22T05:30:37.292Z,1010.68
2019-05-22T05:31:37.287Z,1010.65
2019-05-22T05:32:37.277Z,1010.67
2019-05-22T05:33:37.280Z,1010.69
2019-05-22T05:34:37.268Z,1010.68
2019-05-22T05:35:37.255Z,1010.68
2019-05-22T05:36:37.251Z,1010.70
2019-05-22T05:37:37.245Z,1010.70
2019-05-22T05:38:37.237Z,1010.74
2019-05-22T05:39:37.240Z,1010.76
2019-05-22T05:40:37.219Z,1010.76
2019-05-22T05:41:37.220Z,1010.75
2019-05-22T05:42:37.202Z,1010.79
2019-05-22T05:43:37.199Z,1010.78
2019-05-22T05:44:37.202Z,1010.76
2019-05-22T05:45:37.189Z,1010.78
2019-05-22T05:46:37.174Z,1010.82
2019-05-22T05:47:37.169Z,1010.79
2019-05-22T05:48:37.160Z,1010.82
2019-05-22T05:49:37.156Z,1010.81
2019-05-22T05:50:40.175Z,1010.84
2019-05-22T05:51:37.138Z,1010.88
2019-05-22T05:52:37.131Z,1010.80
2019-05-22T05:53:37.123Z,1010.82
2019-05-22T05:54:37.112Z,1010.83
2019-05-22T05:55:37.109Z,1010.87
2019-05-22T05:56:37.253Z,1010.82
2019-05-22T05:57:37.092Z,1010.86
2019-05-22T05:58:37.090Z,1010.83
2019-05-22T05:59:37.078Z,1010.88
2019-05-22T06:00:37.073Z,1010.83
2019-05-22T06:01:37.063Z,1010.86
2019-05-22T06:02:37.058Z,1010.90
2019-05-22T06:03:37.050Z,1010.86
2019-05-22T06:04:37.041Z,1010.87
2019-05-22T06:05:37.031Z,1010.88
2019-05-22T06:06:37.031Z,1010.90
2019-05-22T06:07:37.021Z,1010.91
2019-05-22T06:08:37.014Z,1010.94
2019-05-22T06:09:37.006Z,1010.92
2019-05-22T06:10:36.996Z,1010.96
2019-05-22T06:11:36.990Z,1010.93
2019-05-22T06:12:36.984Z,1010.94
2019-05-22T06:13:36.988Z,1010.95
2019-05-22T06:14:36.967Z,1010.91
2019-05-22T06:15:46.485Z,1010.92
2019-05-22T06:16:36.952Z,1010.88
2019-05-22T06:17:36.951Z,1010.91
2019-05-22T06:18:36.940Z,1010.91
2019-05-22T06:19:36.934Z,1010.90
2019-05-22T06:20:36.923Z,1010.90
2019-05-22T06:21:36.917Z,1010.96
2019-05-22T06:22:36.911Z,1010.98
2019-05-22T06:23:36.901Z,1011.01
2019-05-22T06:24:36.907Z,1010.99
2019-05-22T06:25:36.888Z,1011.01
2019-05-22T06:26:36.884Z,1011.03
2019-05-22T06:27:36.910Z,1011.02
2019-05-22T06:28:36.878Z,1011.04
2019-05-22T06:29:36.915Z,1011.02
2019-05-22T06:30:36.855Z,1011.07
2019-05-22T06:31:36.848Z,1011.08
2019-05-22T06:32:37.775Z,1011.11
2019-05-22T06:33:36.834Z,1011.09
2019-05-22T06:34:36.823Z,1011.09
2019-05-22T06:35:36.943Z,1011.13
2019-05-22T06:36:36.810Z,1011.13
2019-05-22T06:37:36.802Z,1011.09
2019-05-22T06:38:36.793Z,1011.09
2019-05-22T06:39:36.789Z,1011.10
2019-05-22T06:40:36.783Z,1011.07
2019-05-22T06:41:36.777Z,1011.13
2019-05-22T06:42:36.786Z,1011.10
2019-05-22T06:43:36.762Z,1011.15
2019-05-22T06:44:36.763Z,1011.17
2019-05-22T06:45:36.750Z,1011.17
2019-05-22T06:46:36.740Z,1011.18
2019-05-22T06:47:36.735Z,1011.24
2019-05-22T06:48:36.730Z,1011.21
2019-05-22T06:49:36.780Z,1011.26
2019-05-22T06:50:36.714Z,1011.30
2019-05-22T06:51:36.706Z,1011.30
2019-05-22T06:52:36.696Z,1011.34
2019-05-22T06:53:39.725Z,1011.30
2019-05-22T06:54:36.690Z,1011.33
2019-05-22T06:55:36.719Z,1011.32
2019-05-22T06:56:36.674Z,1011.35
2019-05-22T06:57:36.667Z,1011.37
2019-05-22T06:58:36.663Z,1011.35
2019-05-22T06:59:36.654Z,1011.39
2019-05-22T07:00:36.649Z,1011.39
2019-05-22T07:01:36.637Z,1011.40
2019-05-22T07:02:36.633Z,1011.43
2019-05-22T07:03:36.629Z,1011.38
2019-05-22T07:04:36.628Z,1011.42
2019-05-22T07:05:36.608Z,1011.43
2019-05-22T07:06:36.610Z,1011.46
2019-05-22T07:07:36.592Z,1011.41
2019-05-22T07:08:36.586Z,1011.44
2019-05-22T07:09:36.584Z,1011.45
2019-05-22T07:10:36.582Z,1011.55
2019-05-22T07:11:36.569Z,1011.51
2019-05-22T07:12:36.560Z,1011.49
2019-05-22T07:13:36.551Z,1011.54
2019-05-22T07:14:36.543Z,1011.54
2019-05-22T07:15:36.622Z,1011.53
2019-05-22T07:16:36.534Z,1011.56
2019-05-22T07:17:36.522Z,1011.57
2019-05-22T07:18:36.519Z,1011.61
2019-05-22T07:19:36.511Z,1011.62
2019-05-22T07:20:36.505Z,1011.60
2019-05-22T07:21:36.499Z,1011.69
2019-05-22T07:22:36.489Z,1011.71
2019-05-22T07:23:36.486Z,1011.72
2019-05-22T07:24:36.480Z,1011.72
2019-05-22T07:25:36.477Z,1011.66
2019-05-22T07:26:36.488Z,1011.65
2019-05-22T07:27:36.462Z,1011.67
2019-05-22T07:28:36.458Z,1011.65
2019-05-22T07:29:36.450Z,1011.67
2019-05-22T07:30:37.233Z,1011.65
2019-05-22T07:31:36.426Z,1011.65
2019-05-22T07:32:36.418Z,1011.65
2019-05-22T07:33:36.411Z,1011.65
2019-05-22T07:34:36.404Z,1011.64
2019-05-22T07:35:50.304Z,1011.64
2019-05-22T07:36:36.387Z,1011.67
2019-05-22T07:37:36.380Z,1011.67
2019-05-22T07:38:36.402Z,1011.70
2019-05-22T07:39:36.369Z,1011.65
2019-05-22T07:40:36.368Z,1011.70
2019-05-22T07:41:36.352Z,1011.68
2019-05-22T07:42:36.349Z,1011.63
2019-05-22T07:43:40.912Z,1011.61
2019-05-22T07:44:36.334Z,1011.65
2019-05-22T07:45:36.329Z,1011.63
2019-05-22T07:46:36.317Z,1011.66
2019-05-22T07:47:36.316Z,1011.63
2019-05-22T07:48:36.308Z,1011.67
2019-05-22T07:49:36.301Z,1011.64
2019-05-22T07:50:36.290Z,1011.65
2019-05-22T07:51:51.480Z,1011.67
2019-05-22T07:52:36.275Z,1011.70
2019-05-22T07:53:36.272Z,1011.71
2019-05-22T07:54:36.268Z,1011.72
2019-05-22T07:55:36.256Z,1011.69
2019-05-22T07:56:36.253Z,1011.72
2019-05-22T07:57:36.247Z,1011.76
2019-05-22T07:58:36.231Z,1011.78
2019-05-22T07:59:36.229Z,1011.79
2019-05-22T08:00:36.223Z,1011.77
2019-05-22T08:01:36.217Z,1011.77
2019-05-22T08:02:36.210Z,1011.78
2019-05-22T08:03:36.201Z,1011.75
2019-05-22T08:04:36.192Z,1011.74
2019-05-22T08:05:36.189Z,1011.74
2019-05-22T08:06:36.183Z,1011.78
2019-05-22T08:07:36.197Z,1011.74
2019-05-22T08:08:36.173Z,1011.74
2019-05-22T08:09:36.160Z,1011.80
2019-05-22T08:10:36.157Z,1011.77
2019-05-22T08:11:36.144Z,1011.77
2019-05-22T08:12:36.140Z,1011.79
2019-05-22T08:13:36.142Z,1011.80
2019-05-22T08:14:36.132Z,1011.85
2019-05-22T08:15:36.118Z,1011.88
2019-05-22T08:16:36.112Z,1011.87
2019-05-22T08:17:36.106Z,1011.84
2019-05-22T08:18:36.110Z,1011.80
2019-05-22T08:19:36.092Z,1011.82
2019-05-22T08:20:36.082Z,1011.79
2019-05-22T08:21:36.075Z,1011.82
2019-05-22T08:22:36.068Z,1011.85
2019-05-22T08:23:36.067Z,1011.83
2019-05-22T08:24:36.061Z,1011.88
2019-05-22T08:25:36.059Z,1011.82
2019-05-22T08:26:53.157Z,1011.88
2019-05-22T08:27:36.037Z,1011.86
2019-05-22T08:28:36.037Z,1011.84
2019-05-22T08:29:36.025Z,1011.85
2019-05-22T08:30:36.020Z,1011.91
2019-05-22T08:31:36.023Z,1011.86
2019-05-22T08:32:36.007Z,1011.89
2019-05-22T08:33:35.999Z,1011.89
2019-05-22T08:34:35.997Z,1011.90
2019-05-22T08:35:35.983Z,1011.91
2019-05-22T08:36:38.642Z,1011.89
2019-05-22T08:37:35.978Z,1011.90
2019-05-22T08:38:35.989Z,1011.91
2019-05-22T08:39:35.965Z,1011.93
2019-05-22T08:40:35.954Z,1011.92
2019-05-22T08:41:35.951Z,1011.92
2019-05-22T08:42:35.995Z,1011.92
2019-05-22T08:43:55.836Z,1011.93
2019-05-22T08:44:35.929Z,1011.94
2019-05-22T08:45:35.933Z,1011.97
2019-05-22T08:46:35.925Z,1011.94
2019-05-22T08:47:35.913Z,1011.97
2019-05-22T08:48:35.910Z,1011.98
2019-05-22T08:49:35.895Z,1012.02
2019-05-22T08:50:35.897Z,1012.05
2019-05-22T08:51:35.887Z,1012.01
2019-05-22T08:52:35.882Z,1012.01
2019-05-22T08:53:46.760Z,1012.05
2019-05-22T08:54:35.867Z,1012.04
2019-05-22T08:55:35.961Z,1012.03
2019-05-22T08:56:35.859Z,1012.04
2019-05-22T08:57:35.850Z,1012.06
2019-05-22T08:58:35.851Z,1012.08
2019-05-22T08:59:35.831Z,1012.07
2019-05-22T09:00:35.830Z,1012.06
2019-05-22T09:01:35.830Z,1012.10
2019-05-22T09:02:35.824Z,1012.14
2019-05-22T09:03:35.824Z,1012.11
2019-05-22T09:04:35.812Z,1012.09
2019-05-22T09:05:35.801Z,1012.11
2019-05-22T09:06:35.794Z,1012.10
2019-05-22T09:07:35.788Z,1012.11
2019-05-22T09:08:35.779Z,1012.08
2019-05-22T09:09:35.770Z,1012.08
2019-05-22T09:10:35.766Z,1012.12
2019-05-22T09:11:35.786Z,1012.16
2019-05-22T09:12:35.757Z,1012.16
2019-05-22T09:13:35.751Z,1012.14
2019-05-22T09:14:35.745Z,1012.19
2019-05-22T09:15:35.736Z,1012.14
2019-05-22T09:16:35.725Z,1012.11
2019-05-22T09:17:35.726Z,1012.13
2019-05-22T09:18:35.717Z,1012.16
2019-05-22T09:19:35.713Z,1012.17
2019-05-22T09:20:48.976Z,1012.20
2019-05-22T09:21:35.710Z,1012.17
2019-05-22T09:22:40.681Z,1012.19
2019-05-22T09:23:35.689Z,1012.22
2019-05-22T09:24:35.685Z,1012.24
2019-05-22T09:25:35.679Z,1012.18
2019-05-22T09:26:35.667Z,1012.18
2019-05-22T09:27:35.670Z,1012.15
2019-05-22T09:28:35.670Z,1012.20
2019-05-22T09:29:35.656Z,1012.17
2019-05-22T09:30:35.646Z,1012.18
2019-05-22T09:31:35.665Z,1012.19
2019-05-22T09:32:35.634Z,1012.19
2019-05-22T09:33:35.636Z,1012.12
2019-05-22T09:34:35.625Z,1012.24
2019-05-22T09:35:35.618Z,1012.20
2019-05-22T09:36:35.610Z,1012.24
2019-05-22T09:37:35.609Z,1012.26
2019-05-22T09:38:35.598Z,1012.27
2019-05-22T09:39:35.615Z,1012.30
2019-05-22T09:40:35.585Z,1012.26
2019-05-22T09:41:35.579Z,1012.32
2019-05-22T09:42:35.576Z,1012.28
2019-05-22T09:43:35.571Z,1012.34
2019-05-22T09:44:35.752Z,1012.35
2019-05-22T09:45:35.556Z,1012.33
2019-05-22T09:46:35.560Z,1012.36
2019-05-22T09:47:35.554Z,1012.41
2019-05-22T09:48:35.577Z,1012.40
2019-05-22T09:49:35.534Z,1012.42
2019-05-22T09:50:35.533Z,1012.43
2019-05-22T09:51:35.526Z,1012.38
2019-05-22T09:52:35.519Z,1012.38
2019-05-22T09:53:35.509Z,1012.36
2019-05-22T09:54:35.539Z,1012.37
2019-05-22T09:55:35.501Z,1012.37
2019-05-22T09:56:35.495Z,1012.39
2019-05-22T09:57:35.492Z,1012.43
2019-05-22T09:58:35.493Z,1012.44
2019-05-22T09:59:35.483Z,1012.41
2019-05-22T10:00:35.476Z,1012.45
2019-05-22T10:01:35.469Z,1012.49
2019-05-22T10:02:35.469Z,1012.44
2019-05-22T10:03:35.461Z,1012.43
2019-05-22T10:04:35.451Z,1012.46
2019-05-22T10:05:35.493Z,1012.45
2019-05-22T10:06:35.444Z,1012.47
2019-05-22T10:07:35.438Z,1012.41
2019-05-22T10:08:35.504Z,1012.47
2019-05-22T10:09:35.448Z,1012.43
2019-05-22T10:10:35.428Z,1012.36
2019-05-22T10:11:35.425Z,1012.40
2019-05-22T10:12:35.428Z,1012.42
2019-05-22T10:13:35.679Z,1012.41
2019-05-22T10:14:35.412Z,1012.43
2019-05-22T10:15:35.402Z,1012.42
2019-05-22T10:16:35.409Z,1012.43
2019-05-22T10:17:35.404Z,1012.49
2019-05-22T10:18:35.399Z,1012.55
2019-05-22T10:19:35.398Z,1012.54
2019-05-22T10:20:35.403Z,1012.50
2019-05-22T10:21:35.393Z,1012.48
2019-05-22T10:22:35.387Z,1012.49
2019-05-22T10:23:35.376Z,1012.50
2019-05-22T10:24:35.388Z,1012.51
2019-05-22T10:25:35.374Z,1012.41
2019-05-22T10:26:35.376Z,1012.44
2019-05-22T10:27:35.372Z,1012.47
2019-05-22T10:28:35.369Z,1012.46
2019-05-22T10:29:35.372Z,1012.48
2019-05-22T10:30:35.400Z,1012.44
2019-05-22T10:31:35.365Z,1012.44
2019-05-22T10:32:35.365Z,1012.45
2019-05-22T10:33:35.360Z,1012.49
2019-05-22T10:34:35.364Z,1012.49
2019-05-22T10:35:35.363Z,1012.50
2019-05-22T10:36:35.358Z,1012.49
2019-05-22T10:37:35.354Z,1012.50
2019-05-22T10:38:35.348Z,1012.49
2019-05-22T10:39:35.354Z,1012.52
2019-05-22T10:40:35.352Z,1012.49
2019-05-22T10:41:35.351Z,1012.57
2019-05-22T10:42:35.352Z,1012.57
2019-05-22T10:43:35.348Z,1012.57
2019-05-22T10:44:35.344Z,1012.55
2019-05-22T10:45:35.348Z,1012.52
2019-05-22T10:46:35.346Z,1012.61
2019-05-22T10:47:35.345Z,1012.57
2019-05-22T10:48:35.346Z,1012.57
2019-05-22T10:49:35.343Z,1012.56
2019-05-22T10:50:35.340Z,1012.55
2019-05-22T10:51:35.345Z,1012.55
2019-05-22T10:52:35.353Z,1012.52
2019-05-22T10:53:35.349Z,1012.49
2019-05-22T10:54:35.344Z,1012.49
2019-05-22T10:55:35.343Z,1012.52
2019-05-22T10:56:35.345Z,1012.47
2019-05-22T10:57:35.336Z,1012.51
2019-05-22T10:58:35.339Z,1012.53
2019-05-22T10:59:35.354Z,1012.51
2019-05-22T11:00:35.339Z,1012.48
2019-05-22T11:01:37.542Z,1012.45
2019-05-22T11:02:35.340Z,1012.52
2019-05-22T11:03:35.339Z,1012.52
2019-05-22T11:04:35.343Z,1012.57
2019-05-22T11:05:35.345Z,1012.57
2019-05-22T11:06:35.346Z,1012.54
2019-05-22T11:07:35.350Z,1012.55
2019-05-22T11:08:35.357Z,1012.49
2019-05-22T11:09:35.356Z,1012.58
2019-05-22T11:10:35.362Z,1012.58
2019-05-22T11:11:35.352Z,1012.60
2019-05-22T11:12:35.361Z,1012.59
2019-05-22T11:13:35.363Z,1012.60
2019-05-22T11:14:35.365Z,1012.51
2019-05-22T11:15:35.366Z,1012.58
2019-05-22T11:16:35.378Z,1012.56
2019-05-22T11:17:35.379Z,1012.49
2019-05-22T11:18:35.394Z,1012.55
2019-05-22T11:19:35.384Z,1012.58
2019-05-22T11:20:35.389Z,1012.52
2019-05-22T11:21:35.390Z,1012.52
2019-05-22T11:22:35.404Z,1012.55
2019-05-22T11:23:50.437Z,1012.51
2019-05-22T11:24:35.404Z,1012.51
2019-05-22T11:25:35.442Z,1012.55
2019-05-22T11:26:35.409Z,1012.52
2019-05-22T11:27:35.423Z,1012.56
2019-05-22T11:28:35.470Z,1012.59
2019-05-22T11:29:35.425Z,1012.55
2019-05-22T11:30:35.429Z,1012.63
2019-05-22T11:31:35.427Z,1012.54
2019-05-22T11:32:35.444Z,1012.50
2019-05-22T11:33:35.444Z,1012.48
2019-05-22T11:34:35.477Z,1012.56
2019-05-22T11:35:35.453Z,1012.46
2019-05-22T11:36:35.457Z,1012.51
2019-05-22T11:37:35.463Z,1012.52
2019-05-22T11:38:35.474Z,1012.44
2019-05-22T11:39:39.288Z,1012.45
2019-05-22T11:40:35.474Z,1012.41
2019-05-22T11:41:35.482Z,1012.42
2019-05-22T11:42:35.511Z,1012.46
2019-05-22T11:43:35.503Z,1012.42
2019-05-22T11:44:35.494Z,1012.43
2019-05-22T11:45:35.503Z,1012.41
2019-05-22T11:46:35.507Z,1012.38
2019-05-22T11:47:35.511Z,1012.34
2019-05-22T11:48:35.531Z,1012.33
2019-05-22T11:49:35.523Z,1012.31
2019-05-22T11:50:35.525Z,1012.36
2019-05-22T11:51:35.525Z,1012.33
2019-05-22T11:52:35.543Z,1012.39
2019-05-22T11:53:35.542Z,1012.39
2019-05-22T11:54:35.581Z,1012.44
2019-05-22T11:55:45.197Z,1012.36
2019-05-22T11:56:35.547Z,1012.34
2019-05-22T11:57:35.560Z,1012.35
2019-05-22T11:58:35.571Z,1012.41
2019-05-22T11:59:35.565Z,1012.36
2019-05-22T12:00:35.565Z,1012.47
2019-05-22T12:01:35.570Z,1012.43
2019-05-22T12:02:35.575Z,1012.36
2019-05-22T12:03:35.584Z,1012.30
2019-05-22T12:04:47.341Z,1012.39
2019-05-22T12:05:35.590Z,1012.41